sensor_id;sensor_type;location;lat;lon;timestamp;P1;durP1;ratioP1;P2;durP2;ratioP2
18302;SDS011;9277;37.980;23.748;2023-05-19T00:00:55;10.00;;;3.90;;
18302;SDS011;9277;37.980;23.748;2023-05-19T00:03:22;10.05;;;4.30;;
18302;SDS011;9277;37.980;23.748;2023-05-19T00:05:49;8.88;;;3.90;;
18302;SDS011;9277;37.980;23.748;2023-05-19T00:08:18;4.40;;;3.22;;
18302;SDS011;9277;37.980;23.748;2023-05-19T00:10:45;7.30;;;3.67;;
18302;SDS011;9277;37.980;23.748;2023-05-19T00:13:12;5.85;;;3.22;;
18302;SDS011;9277;37.980;23.748;2023-05-19T00:15:41;9.18;;;3.95;;
18302;SDS011;9277;37.980;23.748;2023-05-19T00:18:08;5.35;;;3.78;;
18302;SDS011;9277;37.980;23.748;2023-05-19T00:20:38;6.22;;;3.63;;
18302;SDS011;9277;37.980;23.748;2023-05-19T00:23:04;5.68;;;3.17;;
18302;SDS011;9277;37.980;23.748;2023-05-19T00:25:31;9.75;;;4.05;;
18302;SDS011;9277;37.980;23.748;2023-05-19T00:27:58;4.68;;;3.45;;
18302;SDS011;9277;37.980;23.748;2023-05-19T00:30:26;8.40;;;3.60;;
18302;SDS011;9277;37.980;23.748;2023-05-19T00:32:54;4.13;;;3.10;;
18302;SDS011;9277;37.980;23.748;2023-05-19T00:35:21;6.63;;;3.22;;
18302;SDS011;9277;37.980;23.748;2023-05-19T00:37:48;7.63;;;3.40;;
18302;SDS011;9277;37.980;23.748;2023-05-19T00:40:15;3.83;;;2.92;;
18302;SDS011;9277;37.980;23.748;2023-05-19T00:42:42;6.32;;;2.95;;
18302;SDS011;9277;37.980;23.748;2023-05-19T00:45:09;6.70;;;3.10;;
18302;SDS011;9277;37.980;23.748;2023-05-19T00:47:36;7.63;;;3.35;;
18302;SDS011;9277;37.980;23.748;2023-05-19T00:50:05;8.18;;;2.92;;
18302;SDS011;9277;37.980;23.748;2023-05-19T00:52:31;7.07;;;3.17;;
18302;SDS011;9277;37.980;23.748;2023-05-19T00:54:58;8.23;;;3.20;;
18302;SDS011;9277;37.980;23.748;2023-05-19T00:57:25;4.32;;;2.80;;
18302;SDS011;9277;37.980;23.748;2023-05-19T00:59:52;6.40;;;3.28;;
18302;SDS011;9277;37.980;23.748;2023-05-19T01:02:19;4.68;;;2.95;;
18302;SDS011;9277;37.980;23.748;2023-05-19T01:04:46;3.85;;;2.92;;
18302;SDS011;9277;37.980;23.748;2023-05-19T01:07:14;3.90;;;2.88;;
18302;SDS011;9277;37.980;23.748;2023-05-19T01:09:42;5.28;;;2.83;;
18302;SDS011;9277;37.980;23.748;2023-05-19T01:12:10;3.85;;;2.70;;
18302;SDS011;9277;37.980;23.748;2023-05-19T01:14:36;7.15;;;3.05;;
18302;SDS011;9277;37.980;23.748;2023-05-19T01:17:05;7.45;;;2.80;;
18302;SDS011;9277;37.980;23.748;2023-05-19T01:19:46;5.00;;;2.50;;
18302;SDS011;9277;37.980;23.748;2023-05-19T01:22:26;5.05;;;2.70;;
18302;SDS011;9277;37.980;23.748;2023-05-19T01:25:07;5.50;;;2.67;;
18302;SDS011;9277;37.980;23.748;2023-05-19T01:27:41;2.85;;;2.55;;
18302;SDS011;9277;37.980;23.748;2023-05-19T01:32:56;3.88;;;2.42;;
18302;SDS011;9277;37.980;23.748;2023-05-19T01:35:24;5.45;;;2.70;;
18302;SDS011;9277;37.980;23.748;2023-05-19T01:37:51;5.72;;;2.92;;
18302;SDS011;9277;37.980;23.748;2023-05-19T01:40:18;10.65;;;2.92;;
18302;SDS011;9277;37.980;23.748;2023-05-19T01:42:46;4.10;;;2.63;;
18302;SDS011;9277;37.980;23.748;2023-05-19T01:45:14;4.05;;;2.67;;
18302;SDS011;9277;37.980;23.748;2023-05-19T01:47:42;6.10;;;3.70;;
18302;SDS011;9277;37.980;23.748;2023-05-19T01:50:10;6.93;;;3.10;;
18302;SDS011;9277;37.980;23.748;2023-05-19T01:52:37;6.25;;;3.38;;
18302;SDS011;9277;37.980;23.748;2023-05-19T01:55:04;4.18;;;2.78;;
18302;SDS011;9277;37.980;23.748;2023-05-19T01:57:33;3.58;;;3.13;;
18302;SDS011;9277;37.980;23.748;2023-05-19T02:00:07;4.63;;;2.95;;
18302;SDS011;9277;37.980;23.748;2023-05-19T02:02:37;3.63;;;2.65;;
18302;SDS011;9277;37.980;23.748;2023-05-19T02:05:09;4.70;;;3.05;;
18302;SDS011;9277;37.980;23.748;2023-05-19T02:07:43;5.50;;;3.35;;
18302;SDS011;9277;37.980;23.748;2023-05-19T02:10:14;2.63;;;2.42;;
18302;SDS011;9277;37.980;23.748;2023-05-19T02:12:43;5.53;;;3.15;;
18302;SDS011;9277;37.980;23.748;2023-05-19T02:15:12;3.72;;;2.78;;
18302;SDS011;9277;37.980;23.748;2023-05-19T02:17:40;6.68;;;2.85;;
18302;SDS011;9277;37.980;23.748;2023-05-19T02:20:11;4.50;;;2.65;;
18302;SDS011;9277;37.980;23.748;2023-05-19T02:22:38;3.65;;;3.08;;
18302;SDS011;9277;37.980;23.748;2023-05-19T02:25:07;8.82;;;3.22;;
18302;SDS011;9277;37.980;23.748;2023-05-19T02:27:35;3.67;;;2.72;;
18302;SDS011;9277;37.980;23.748;2023-05-19T02:30:02;3.13;;;2.80;;
18302;SDS011;9277;37.980;23.748;2023-05-19T02:32:28;3.38;;;2.70;;
18302;SDS011;9277;37.980;23.748;2023-05-19T02:34:55;4.32;;;2.58;;
18302;SDS011;9277;37.980;23.748;2023-05-19T02:37:22;5.78;;;3.40;;
18302;SDS011;9277;37.980;23.748;2023-05-19T02:39:49;5.57;;;3.03;;
18302;SDS011;9277;37.980;23.748;2023-05-19T02:42:17;4.70;;;3.08;;
18302;SDS011;9277;37.980;23.748;2023-05-19T02:44:44;4.97;;;2.92;;
18302;SDS011;9277;37.980;23.748;2023-05-19T02:47:11;5.22;;;3.05;;
18302;SDS011;9277;37.980;23.748;2023-05-19T02:49:38;8.57;;;3.15;;
18302;SDS011;9277;37.980;23.748;2023-05-19T02:52:05;3.72;;;3.00;;
18302;SDS011;9277;37.980;23.748;2023-05-19T02:54:32;2.95;;;2.65;;
18302;SDS011;9277;37.980;23.748;2023-05-19T02:56:59;5.70;;;3.00;;
18302;SDS011;9277;37.980;23.748;2023-05-19T02:59:28;4.05;;;2.90;;
18302;SDS011;9277;37.980;23.748;2023-05-19T03:01:57;5.18;;;3.17;;
18302;SDS011;9277;37.980;23.748;2023-05-19T03:04:24;5.88;;;3.22;;
18302;SDS011;9277;37.980;23.748;2023-05-19T03:06:51;3.25;;;2.95;;
18302;SDS011;9277;37.980;23.748;2023-05-19T03:09:18;5.95;;;2.63;;
18302;SDS011;9277;37.980;23.748;2023-05-19T03:11:45;4.65;;;3.08;;
18302;SDS011;9277;37.980;23.748;2023-05-19T03:14:11;7.18;;;2.55;;
18302;SDS011;9277;37.980;23.748;2023-05-19T03:16:40;6.55;;;2.85;;
18302;SDS011;9277;37.980;23.748;2023-05-19T03:19:07;4.03;;;2.80;;
18302;SDS011;9277;37.980;23.748;2023-05-19T03:21:34;4.35;;;2.53;;
18302;SDS011;9277;37.980;23.748;2023-05-19T03:24:02;5.05;;;2.60;;
18302;SDS011;9277;37.980;23.748;2023-05-19T03:26:29;4.07;;;2.72;;
18302;SDS011;9277;37.980;23.748;2023-05-19T03:28:55;4.38;;;3.15;;
18302;SDS011;9277;37.980;23.748;2023-05-19T03:31:22;7.90;;;3.03;;
18302;SDS011;9277;37.980;23.748;2023-05-19T03:33:52;2.80;;;2.50;;
18302;SDS011;9277;37.980;23.748;2023-05-19T03:36:18;4.78;;;2.60;;
18302;SDS011;9277;37.980;23.748;2023-05-19T03:38:46;3.33;;;2.58;;
18302;SDS011;9277;37.980;23.748;2023-05-19T03:41:12;5.78;;;2.60;;
18302;SDS011;9277;37.980;23.748;2023-05-19T03:43:39;3.45;;;2.72;;
18302;SDS011;9277;37.980;23.748;2023-05-19T03:46:06;4.65;;;2.60;;
18302;SDS011;9277;37.980;23.748;2023-05-19T03:48:33;6.93;;;3.50;;
18302;SDS011;9277;37.980;23.748;2023-05-19T03:51:01;3.15;;;2.85;;
18302;SDS011;9277;37.980;23.748;2023-05-19T03:53:28;6.88;;;3.20;;
18302;SDS011;9277;37.980;23.748;2023-05-19T03:55:55;3.90;;;3.05;;
18302;SDS011;9277;37.980;23.748;2023-05-19T03:58:22;3.97;;;2.70;;
18302;SDS011;9277;37.980;23.748;2023-05-19T04:00:49;3.92;;;2.78;;
18302;SDS011;9277;37.980;23.748;2023-05-19T04:03:16;3.70;;;2.67;;
18302;SDS011;9277;37.980;23.748;2023-05-19T04:05:43;4.82;;;3.08;;
18302;SDS011;9277;37.980;23.748;2023-05-19T04:08:11;3.70;;;2.80;;
18302;SDS011;9277;37.980;23.748;2023-05-19T04:10:38;3.80;;;3.05;;
18302;SDS011;9277;37.980;23.748;2023-05-19T04:13:04;4.70;;;2.83;;
18302;SDS011;9277;37.980;23.748;2023-05-19T04:15:31;4.80;;;2.95;;
18302;SDS011;9277;37.980;23.748;2023-05-19T04:17:58;2.80;;;2.50;;
18302;SDS011;9277;37.980;23.748;2023-05-19T04:20:25;3.63;;;2.92;;
18302;SDS011;9277;37.980;23.748;2023-05-19T04:22:51;10.32;;;3.13;;
18302;SDS011;9277;37.980;23.748;2023-05-19T04:25:19;7.88;;;3.35;;
18302;SDS011;9277;37.980;23.748;2023-05-19T04:27:49;3.50;;;2.75;;
18302;SDS011;9277;37.980;23.748;2023-05-19T04:30:17;4.03;;;2.92;;
18302;SDS011;9277;37.980;23.748;2023-05-19T04:32:46;4.97;;;2.90;;
18302;SDS011;9277;37.980;23.748;2023-05-19T04:35:13;3.60;;;2.75;;
18302;SDS011;9277;37.980;23.748;2023-05-19T04:37:41;3.88;;;3.00;;
18302;SDS011;9277;37.980;23.748;2023-05-19T04:40:10;7.03;;;2.90;;
18302;SDS011;9277;37.980;23.748;2023-05-19T04:42:38;4.50;;;2.80;;
18302;SDS011;9277;37.980;23.748;2023-05-19T04:45:07;5.10;;;2.67;;
18302;SDS011;9277;37.980;23.748;2023-05-19T04:47:34;3.30;;;2.60;;
18302;SDS011;9277;37.980;23.748;2023-05-19T04:50:02;3.47;;;2.25;;
18302;SDS011;9277;37.980;23.748;2023-05-19T04:52:29;2.25;;;2.15;;
18302;SDS011;9277;37.980;23.748;2023-05-19T04:54:56;3.00;;;2.58;;
18302;SDS011;9277;37.980;23.748;2023-05-19T04:57:22;5.00;;;2.70;;
18302;SDS011;9277;37.980;23.748;2023-05-19T04:59:51;4.45;;;2.65;;
18302;SDS011;9277;37.980;23.748;2023-05-19T05:02:23;4.68;;;2.22;;
18302;SDS011;9277;37.980;23.748;2023-05-19T05:04:50;2.63;;;2.42;;
18302;SDS011;9277;37.980;23.748;2023-05-19T05:07:18;3.25;;;2.55;;
18302;SDS011;9277;37.980;23.748;2023-05-19T05:09:46;3.55;;;2.30;;
18302;SDS011;9277;37.980;23.748;2023-05-19T05:12:13;8.60;;;3.20;;
18302;SDS011;9277;37.980;23.748;2023-05-19T05:14:40;3.88;;;2.33;;
18302;SDS011;9277;37.980;23.748;2023-05-19T05:17:10;3.47;;;2.45;;
18302;SDS011;9277;37.980;23.748;2023-05-19T05:19:37;4.50;;;2.40;;
18302;SDS011;9277;37.980;23.748;2023-05-19T05:22:04;4.82;;;2.55;;
18302;SDS011;9277;37.980;23.748;2023-05-19T05:24:31;2.53;;;2.33;;
18302;SDS011;9277;37.980;23.748;2023-05-19T05:26:58;2.45;;;2.22;;
18302;SDS011;9277;37.980;23.748;2023-05-19T05:29:25;4.15;;;2.78;;
18302;SDS011;9277;37.980;23.748;2023-05-19T05:31:52;2.85;;;2.55;;
18302;SDS011;9277;37.980;23.748;2023-05-19T05:34:20;2.90;;;2.58;;
18302;SDS011;9277;37.980;23.748;2023-05-19T05:36:47;3.47;;;2.45;;
18302;SDS011;9277;37.980;23.748;2023-05-19T05:39:14;4.25;;;2.33;;
18302;SDS011;9277;37.980;23.748;2023-05-19T05:41:41;4.97;;;2.42;;
18302;SDS011;9277;37.980;23.748;2023-05-19T05:44:07;7.15;;;2.55;;
18302;SDS011;9277;37.980;23.748;2023-05-19T05:46:34;5.30;;;2.85;;
18302;SDS011;9277;37.980;23.748;2023-05-19T05:49:01;3.78;;;2.20;;
18302;SDS011;9277;37.980;23.748;2023-05-19T05:51:29;2.97;;;2.45;;
18302;SDS011;9277;37.980;23.748;2023-05-19T05:53:57;3.33;;;2.42;;
18302;SDS011;9277;37.980;23.748;2023-05-19T05:56:25;3.35;;;2.45;;
18302;SDS011;9277;37.980;23.748;2023-05-19T05:58:53;9.65;;;2.30;;
18302;SDS011;9277;37.980;23.748;2023-05-19T06:01:21;2.70;;;2.50;;
18302;SDS011;9277;37.980;23.748;2023-05-19T06:03:48;4.40;;;2.30;;
18302;SDS011;9277;37.980;23.748;2023-05-19T06:06:14;2.53;;;2.08;;
18302;SDS011;9277;37.980;23.748;2023-05-19T06:08:43;3.15;;;2.22;;
18302;SDS011;9277;37.980;23.748;2023-05-19T06:11:09;3.97;;;2.20;;
18302;SDS011;9277;37.980;23.748;2023-05-19T06:13:37;2.65;;;2.05;;
18302;SDS011;9277;37.980;23.748;2023-05-19T06:16:05;2.45;;;2.20;;
18302;SDS011;9277;37.980;23.748;2023-05-19T06:18:32;4.55;;;2.45;;
18302;SDS011;9277;37.980;23.748;2023-05-19T06:20:59;2.58;;;2.38;;
18302;SDS011;9277;37.980;23.748;2023-05-19T06:23:25;4.72;;;2.13;;
18302;SDS011;9277;37.980;23.748;2023-05-19T06:25:54;3.15;;;2.75;;
18302;SDS011;9277;37.980;23.748;2023-05-19T06:28:21;5.00;;;2.70;;
18302;SDS011;9277;37.980;23.748;2023-05-19T06:30:48;3.35;;;2.22;;
18302;SDS011;9277;37.980;23.748;2023-05-19T06:33:15;8.10;;;2.95;;
18302;SDS011;9277;37.980;23.748;2023-05-19T06:35:42;2.53;;;2.33;;
18302;SDS011;9277;37.980;23.748;2023-05-19T06:38:09;2.65;;;2.20;;
18302;SDS011;9277;37.980;23.748;2023-05-19T06:40:35;4.95;;;2.28;;
18302;SDS011;9277;37.980;23.748;2023-05-19T06:43:04;4.68;;;2.20;;
18302;SDS011;9277;37.980;23.748;2023-05-19T06:45:31;6.43;;;2.33;;
18302;SDS011;9277;37.980;23.748;2023-05-19T06:47:58;2.55;;;2.17;;
18302;SDS011;9277;37.980;23.748;2023-05-19T06:50:25;3.03;;;2.30;;
18302;SDS011;9277;37.980;23.748;2023-05-19T06:52:52;2.85;;;2.15;;
18302;SDS011;9277;37.980;23.748;2023-05-19T06:55:18;3.13;;;2.50;;
18302;SDS011;9277;37.980;23.748;2023-05-19T06:57:45;3.75;;;2.20;;
18302;SDS011;9277;37.980;23.748;2023-05-19T07:00:14;7.35;;;2.47;;
18302;SDS011;9277;37.980;23.748;2023-05-19T07:02:41;4.53;;;2.75;;
18302;SDS011;9277;37.980;23.748;2023-05-19T07:05:08;2.35;;;2.15;;
18302;SDS011;9277;37.980;23.748;2023-05-19T07:07:36;4.18;;;2.53;;
18302;SDS011;9277;37.980;23.748;2023-05-19T07:10:06;3.13;;;2.20;;
18302;SDS011;9277;37.980;23.748;2023-05-19T07:12:33;5.38;;;2.17;;
18302;SDS011;9277;37.980;23.748;2023-05-19T07:15:00;2.80;;;2.28;;
18302;SDS011;9277;37.980;23.748;2023-05-19T07:17:28;1.80;;;1.70;;
18302;SDS011;9277;37.980;23.748;2023-05-19T07:19:55;3.33;;;2.08;;
18302;SDS011;9277;37.980;23.748;2023-05-19T07:22:21;3.10;;;2.50;;
18302;SDS011;9277;37.980;23.748;2023-05-19T07:24:48;3.47;;;1.85;;
18302;SDS011;9277;37.980;23.748;2023-05-19T07:27:15;3.38;;;2.53;;
18302;SDS011;9277;37.980;23.748;2023-05-19T07:29:42;2.97;;;2.10;;
18302;SDS011;9277;37.980;23.748;2023-05-19T07:32:08;4.63;;;2.00;;
18302;SDS011;9277;37.980;23.748;2023-05-19T07:34:40;3.10;;;2.20;;
18302;SDS011;9277;37.980;23.748;2023-05-19T07:37:07;2.30;;;2.10;;
18302;SDS011;9277;37.980;23.748;2023-05-19T07:39:37;6.68;;;2.75;;
18302;SDS011;9277;37.980;23.748;2023-05-19T07:42:04;2.47;;;2.28;;
18302;SDS011;9277;37.980;23.748;2023-05-19T07:44:31;2.30;;;2.10;;
18302;SDS011;9277;37.980;23.748;2023-05-19T07:46:58;3.10;;;2.20;;
18302;SDS011;9277;37.980;23.748;2023-05-19T07:49:25;4.28;;;2.40;;
18302;SDS011;9277;37.980;23.748;2023-05-19T07:51:53;3.03;;;2.40;;
18302;SDS011;9277;37.980;23.748;2023-05-19T07:54:20;2.78;;;2.10;;
18302;SDS011;9277;37.980;23.748;2023-05-19T07:56:47;3.10;;;2.03;;
18302;SDS011;9277;37.980;23.748;2023-05-19T07:59:14;3.13;;;2.17;;
18302;SDS011;9277;37.980;23.748;2023-05-19T08:01:41;3.50;;;2.15;;
18302;SDS011;9277;37.980;23.748;2023-05-19T08:04:09;6.82;;;2.15;;
18302;SDS011;9277;37.980;23.748;2023-05-19T08:06:36;2.40;;;2.00;;
18302;SDS011;9277;37.980;23.748;2023-05-19T08:09:05;3.10;;;1.90;;
18302;SDS011;9277;37.980;23.748;2023-05-19T08:11:31;1.77;;;1.67;;
18302;SDS011;9277;37.980;23.748;2023-05-19T08:13:58;3.63;;;2.25;;
18302;SDS011;9277;37.980;23.748;2023-05-19T08:16:25;5.05;;;2.50;;
18302;SDS011;9277;37.980;23.748;2023-05-19T08:18:52;4.30;;;2.33;;
18302;SDS011;9277;37.980;23.748;2023-05-19T08:21:19;3.83;;;2.30;;
18302;SDS011;9277;37.980;23.748;2023-05-19T08:23:46;4.85;;;2.70;;
18302;SDS011;9277;37.980;23.748;2023-05-19T08:26:14;2.05;;;1.95;;
18302;SDS011;9277;37.980;23.748;2023-05-19T08:28:40;3.75;;;2.50;;
18302;SDS011;9277;37.980;23.748;2023-05-19T08:31:08;3.65;;;2.33;;
18302;SDS011;9277;37.980;23.748;2023-05-19T08:33:35;2.58;;;2.38;;
18302;SDS011;9277;37.980;23.748;2023-05-19T08:36:01;11.55;;;2.35;;
18302;SDS011;9277;37.980;23.748;2023-05-19T08:38:28;2.50;;;2.20;;
18302;SDS011;9277;37.980;23.748;2023-05-19T08:40:55;3.95;;;1.98;;
18302;SDS011;9277;37.980;23.748;2023-05-19T08:43:23;4.75;;;2.15;;
18302;SDS011;9277;37.980;23.748;2023-05-19T08:45:50;3.67;;;2.25;;
18302;SDS011;9277;37.980;23.748;2023-05-19T08:48:18;2.58;;;2.20;;
18302;SDS011;9277;37.980;23.748;2023-05-19T08:50:45;3.97;;;2.38;;
18302;SDS011;9277;37.980;23.748;2023-05-19T08:53:17;7.43;;;2.25;;
18302;SDS011;9277;37.980;23.748;2023-05-19T08:55:48;3.72;;;2.20;;
18302;SDS011;9277;37.980;23.748;2023-05-19T08:58:17;2.30;;;2.10;;
18302;SDS011;9277;37.980;23.748;2023-05-19T09:00:47;2.03;;;1.92;;
18302;SDS011;9277;37.980;23.748;2023-05-19T09:03:15;7.53;;;2.45;;
18302;SDS011;9277;37.980;23.748;2023-05-19T09:05:42;2.38;;;2.17;;
18302;SDS011;9277;37.980;23.748;2023-05-19T09:08:09;2.60;;;2.22;;
18302;SDS011;9277;37.980;23.748;2023-05-19T09:10:36;4.65;;;2.30;;
18302;SDS011;9277;37.980;23.748;2023-05-19T09:13:03;2.85;;;2.30;;
18302;SDS011;9277;37.980;23.748;2023-05-19T09:15:30;4.25;;;2.58;;
18302;SDS011;9277;37.980;23.748;2023-05-19T09:18:06;3.72;;;2.10;;
18302;SDS011;9277;37.980;23.748;2023-05-19T09:20:37;4.07;;;2.30;;
18302;SDS011;9277;37.980;23.748;2023-05-19T09:23:04;3.28;;;2.10;;
18302;SDS011;9277;37.980;23.748;2023-05-19T09:25:32;4.55;;;2.53;;
18302;SDS011;9277;37.980;23.748;2023-05-19T09:27:58;4.63;;;2.30;;
18302;SDS011;9277;37.980;23.748;2023-05-19T09:30:25;4.60;;;2.03;;
18302;SDS011;9277;37.980;23.748;2023-05-19T09:32:52;4.93;;;2.53;;
18302;SDS011;9277;37.980;23.748;2023-05-19T09:35:20;3.35;;;2.17;;
18302;SDS011;9277;37.980;23.748;2023-05-19T09:37:47;2.35;;;2.08;;
18302;SDS011;9277;37.980;23.748;2023-05-19T09:40:14;2.30;;;2.00;;
18302;SDS011;9277;37.980;23.748;2023-05-19T09:42:41;3.72;;;1.98;;
18302;SDS011;9277;37.980;23.748;2023-05-19T09:45:08;2.42;;;2.17;;
18302;SDS011;9277;37.980;23.748;2023-05-19T09:47:36;2.22;;;2.05;;
18302;SDS011;9277;37.980;23.748;2023-05-19T09:50:03;2.65;;;2.17;;
18302;SDS011;9277;37.980;23.748;2023-05-19T09:52:35;4.22;;;2.13;;
18302;SDS011;9277;37.980;23.748;2023-05-19T09:55:03;4.85;;;2.00;;
18302;SDS011;9277;37.980;23.748;2023-05-19T09:57:33;2.80;;;2.05;;
18302;SDS011;9277;37.980;23.748;2023-05-19T10:00:02;3.33;;;2.10;;
18302;SDS011;9277;37.980;23.748;2023-05-19T10:02:35;2.75;;;2.25;;
18302;SDS011;9277;37.980;23.748;2023-05-19T10:05:02;4.13;;;2.40;;
18302;SDS011;9277;37.980;23.748;2023-05-19T10:07:30;6.53;;;4.00;;
18302;SDS011;9277;37.980;23.748;2023-05-19T10:09:58;3.22;;;2.58;;
18302;SDS011;9277;37.980;23.748;2023-05-19T10:12:25;3.58;;;2.28;;
18302;SDS011;9277;37.980;23.748;2023-05-19T10:14:52;2.95;;;2.50;;
18302;SDS011;9277;37.980;23.748;2023-05-19T10:17:20;7.88;;;2.70;;
18302;SDS011;9277;37.980;23.748;2023-05-19T10:19:47;5.95;;;2.55;;
18302;SDS011;9277;37.980;23.748;2023-05-19T10:22:16;2.25;;;2.05;;
18302;SDS011;9277;37.980;23.748;2023-05-19T10:24:42;4.13;;;2.45;;
18302;SDS011;9277;37.980;23.748;2023-05-19T10:27:11;12.35;;;2.72;;
18302;SDS011;9277;37.980;23.748;2023-05-19T10:29:40;2.60;;;2.40;;
18302;SDS011;9277;37.980;23.748;2023-05-19T10:32:09;3.72;;;2.53;;
18302;SDS011;9277;37.980;23.748;2023-05-19T10:35:05;5.75;;;2.65;;
18302;SDS011;9277;37.980;23.748;2023-05-19T10:37:36;4.45;;;2.42;;
18302;SDS011;9277;37.980;23.748;2023-05-19T10:40:08;3.38;;;2.40;;
18302;SDS011;9277;37.980;23.748;2023-05-19T10:42:39;6.65;;;2.63;;
18302;SDS011;9277;37.980;23.748;2023-05-19T10:45:12;2.30;;;2.00;;
18302;SDS011;9277;37.980;23.748;2023-05-19T10:47:39;4.07;;;2.33;;
18302;SDS011;9277;37.980;23.748;2023-05-19T10:50:06;2.90;;;2.60;;
18302;SDS011;9277;37.980;23.748;2023-05-19T10:52:35;2.35;;;2.15;;
18302;SDS011;9277;37.980;23.748;2023-05-19T10:55:02;4.90;;;2.38;;
18302;SDS011;9277;37.980;23.748;2023-05-19T10:57:29;2.50;;;2.30;;
18302;SDS011;9277;37.980;23.748;2023-05-19T10:59:59;7.07;;;2.78;;
18302;SDS011;9277;37.980;23.748;2023-05-19T11:02:38;3.33;;;2.53;;
18302;SDS011;9277;37.980;23.748;2023-05-19T11:05:08;3.10;;;2.20;;
18302;SDS011;9277;37.980;23.748;2023-05-19T11:07:35;2.20;;;2.00;;
18302;SDS011;9277;37.980;23.748;2023-05-19T11:10:05;5.95;;;2.67;;
18302;SDS011;9277;37.980;23.748;2023-05-19T11:12:38;3.15;;;2.53;;
18302;SDS011;9277;37.980;23.748;2023-05-19T11:15:08;5.18;;;2.63;;
18302;SDS011;9277;37.980;23.748;2023-05-19T11:17:35;4.20;;;2.20;;
18302;SDS011;9277;37.980;23.748;2023-05-19T11:20:02;2.75;;;2.22;;
18302;SDS011;9277;37.980;23.748;2023-05-19T11:22:33;3.40;;;2.92;;
18302;SDS011;9277;37.980;23.748;2023-05-19T11:25:01;5.65;;;2.70;;
18302;SDS011;9277;37.980;23.748;2023-05-19T11:27:28;6.43;;;3.00;;
18302;SDS011;9277;37.980;23.748;2023-05-19T11:29:57;3.35;;;2.53;;
18302;SDS011;9277;37.980;23.748;2023-05-19T11:32:27;7.47;;;2.55;;
18302;SDS011;9277;37.980;23.748;2023-05-19T11:34:54;3.20;;;2.63;;
18302;SDS011;9277;37.980;23.748;2023-05-19T11:37:20;6.43;;;3.20;;
18302;SDS011;9277;37.980;23.748;2023-05-19T11:39:47;3.50;;;2.58;;
18302;SDS011;9277;37.980;23.748;2023-05-19T11:42:14;3.33;;;2.45;;
18302;SDS011;9277;37.980;23.748;2023-05-19T11:44:41;2.80;;;2.45;;
18302;SDS011;9277;37.980;23.748;2023-05-19T11:47:10;5.82;;;3.25;;
18302;SDS011;9277;37.980;23.748;2023-05-19T11:49:41;4.03;;;2.88;;
18302;SDS011;9277;37.980;23.748;2023-05-19T11:52:08;4.80;;;2.55;;
18302;SDS011;9277;37.980;23.748;2023-05-19T11:54:35;4.63;;;2.72;;
18302;SDS011;9277;37.980;23.748;2023-05-19T11:57:03;3.17;;;2.40;;
18302;SDS011;9277;37.980;23.748;2023-05-19T11:59:30;2.78;;;2.58;;
18302;SDS011;9277;37.980;23.748;2023-05-19T12:01:59;3.00;;;2.38;;
18302;SDS011;9277;37.980;23.748;2023-05-19T12:04:28;3.38;;;2.90;;
18302;SDS011;9277;37.980;23.748;2023-05-19T12:06:57;2.70;;;2.38;;
18302;SDS011;9277;37.980;23.748;2023-05-19T12:09:23;3.25;;;2.38;;
18302;SDS011;9277;37.980;23.748;2023-05-19T12:11:50;4.10;;;2.85;;
18302;SDS011;9277;37.980;23.748;2023-05-19T12:14:17;4.40;;;2.60;;
18302;SDS011;9277;37.980;23.748;2023-05-19T12:16:44;3.53;;;2.78;;
18302;SDS011;9277;37.980;23.748;2023-05-19T12:19:11;2.70;;;2.38;;
18302;SDS011;9277;37.980;23.748;2023-05-19T12:21:38;3.83;;;2.38;;
18302;SDS011;9277;37.980;23.748;2023-05-19T12:24:06;3.08;;;2.60;;
18302;SDS011;9277;37.980;23.748;2023-05-19T12:26:34;3.83;;;2.38;;
18302;SDS011;9277;37.980;23.748;2023-05-19T12:29:03;3.85;;;2.55;;
18302;SDS011;9277;37.980;23.748;2023-05-19T12:31:31;3.67;;;2.40;;
18302;SDS011;9277;37.980;23.748;2023-05-19T12:33:58;3.83;;;2.80;;
18302;SDS011;9277;37.980;23.748;2023-05-19T12:36:28;2.63;;;2.42;;
18302;SDS011;9277;37.980;23.748;2023-05-19T12:38:55;3.22;;;2.90;;
18302;SDS011;9277;37.980;23.748;2023-05-19T12:41:24;6.85;;;3.85;;
18302;SDS011;9277;37.980;23.748;2023-05-19T12:43:52;7.28;;;3.25;;
18302;SDS011;9277;37.980;23.748;2023-05-19T12:46:19;6.00;;;3.22;;
18302;SDS011;9277;37.980;23.748;2023-05-19T12:48:46;5.20;;;3.38;;
18302;SDS011;9277;37.980;23.748;2023-05-19T12:51:16;4.63;;;2.40;;
18302;SDS011;9277;37.980;23.748;2023-05-19T12:53:43;4.20;;;2.65;;
18302;SDS011;9277;37.980;23.748;2023-05-19T12:56:10;4.30;;;2.83;;
18302;SDS011;9277;37.980;23.748;2023-05-19T12:58:40;2.97;;;2.60;;
18302;SDS011;9277;37.980;23.748;2023-05-19T13:01:13;3.28;;;2.53;;
18302;SDS011;9277;37.980;23.748;2023-05-19T13:03:40;4.13;;;3.50;;
18302;SDS011;9277;37.980;23.748;2023-05-19T13:06:07;4.00;;;2.53;;
18302;SDS011;9277;37.980;23.748;2023-05-19T13:08:35;9.15;;;3.42;;
18302;SDS011;9277;37.980;23.748;2023-05-19T13:11:02;5.78;;;3.65;;
18302;SDS011;9277;37.980;23.748;2023-05-19T13:13:29;4.88;;;3.10;;
18302;SDS011;9277;37.980;23.748;2023-05-19T13:15:57;3.05;;;2.75;;
18302;SDS011;9277;37.980;23.748;2023-05-19T13:18:24;4.53;;;3.53;;
18302;SDS011;9277;37.980;23.748;2023-05-19T13:20:51;4.63;;;3.08;;
18302;SDS011;9277;37.980;23.748;2023-05-19T13:23:18;3.75;;;3.30;;
18302;SDS011;9277;37.980;23.748;2023-05-19T13:25:45;5.63;;;3.35;;
18302;SDS011;9277;37.980;23.748;2023-05-19T13:28:12;3.63;;;2.80;;
18302;SDS011;9277;37.980;23.748;2023-05-19T13:30:39;4.47;;;2.80;;
18302;SDS011;9277;37.980;23.748;2023-05-19T13:33:08;6.10;;;3.60;;
18302;SDS011;9277;37.980;23.748;2023-05-19T13:35:35;10.30;;;3.20;;
18302;SDS011;9277;37.980;23.748;2023-05-19T13:38:03;3.85;;;2.92;;
18302;SDS011;9277;37.980;23.748;2023-05-19T13:40:30;2.80;;;2.55;;
18302;SDS011;9277;37.980;23.748;2023-05-19T13:42:58;3.92;;;3.13;;
18302;SDS011;9277;37.980;23.748;2023-05-19T13:45:25;3.50;;;2.30;;
18302;SDS011;9277;37.980;23.748;2023-05-19T13:47:52;4.68;;;3.15;;
18302;SDS011;9277;37.980;23.748;2023-05-19T13:50:21;9.18;;;3.70;;
18302;SDS011;9277;37.980;23.748;2023-05-19T13:52:47;7.15;;;3.63;;
18302;SDS011;9277;37.980;23.748;2023-05-19T13:55:14;4.63;;;3.10;;
18302;SDS011;9277;37.980;23.748;2023-05-19T13:57:41;7.40;;;2.88;;
18302;SDS011;9277;37.980;23.748;2023-05-19T14:00:09;4.80;;;3.88;;
18302;SDS011;9277;37.980;23.748;2023-05-19T14:02:36;6.93;;;3.47;;
18302;SDS011;9277;37.980;23.748;2023-05-19T14:05:05;7.25;;;3.42;;
18302;SDS011;9277;37.980;23.748;2023-05-19T14:07:33;5.57;;;3.50;;
18302;SDS011;9277;37.980;23.748;2023-05-19T14:10:00;3.80;;;2.80;;
18302;SDS011;9277;37.980;23.748;2023-05-19T14:12:27;5.78;;;3.60;;
18302;SDS011;9277;37.980;23.748;2023-05-19T14:14:54;5.70;;;3.20;;
18302;SDS011;9277;37.980;23.748;2023-05-19T14:17:21;5.20;;;3.45;;
18302;SDS011;9277;37.980;23.748;2023-05-19T14:19:48;4.68;;;3.20;;
18302;SDS011;9277;37.980;23.748;2023-05-19T14:22:15;8.32;;;3.97;;
18302;SDS011;9277;37.980;23.748;2023-05-19T14:24:43;5.47;;;3.70;;
18302;SDS011;9277;37.980;23.748;2023-05-19T14:27:10;5.60;;;3.00;;
18302;SDS011;9277;37.980;23.748;2023-05-19T14:29:37;6.60;;;3.50;;
18302;SDS011;9277;37.980;23.748;2023-05-19T14:32:04;7.07;;;3.35;;
18302;SDS011;9277;37.980;23.748;2023-05-19T14:34:31;4.20;;;3.25;;
18302;SDS011;9277;37.980;23.748;2023-05-19T14:36:59;7.45;;;2.95;;
18302;SDS011;9277;37.980;23.748;2023-05-19T14:39:26;6.50;;;3.63;;
18302;SDS011;9277;37.980;23.748;2023-05-19T14:41:54;4.97;;;3.40;;
18302;SDS011;9277;37.980;23.748;2023-05-19T14:44:21;5.50;;;3.50;;
18302;SDS011;9277;37.980;23.748;2023-05-19T14:46:48;7.90;;;3.92;;
18302;SDS011;9277;37.980;23.748;2023-05-19T14:49:14;5.93;;;3.10;;
18302;SDS011;9277;37.980;23.748;2023-05-19T14:51:41;3.72;;;2.65;;
18302;SDS011;9277;37.980;23.748;2023-05-19T14:54:08;2.63;;;2.30;;